createdAt,value
2022-09-28T00:01:07.844Z,98733.13
2022-09-28T00:06:11.803Z,98735.84
2022-09-28T00:11:16.232Z,98733.69
2022-09-28T00:16:21.604Z,98727.22
2022-09-28T00:21:26.086Z,98723.94
2022-09-28T00:26:30.143Z,98712.22
2022-09-28T00:31:35.542Z,98721.53
2022-09-28T00:36:44.937Z,98721.13
2022-09-28T00:41:48.860Z,98726.06
2022-09-28T00:46:56.382Z,98726.97
2022-09-28T00:52:00.155Z,98725.16
2022-09-28T00:57:04.202Z,98728.25
2022-09-28T01:02:10.501Z,98727.34
2022-09-28T01:07:14.600Z,98717.00
2022-09-28T01:12:17.494Z,98720.91
2022-09-28T01:17:26.584Z,98722.00
2022-09-28T01:22:37.190Z,98727.44
2022-09-28T01:27:44.259Z,98719.00
2022-09-28T01:32:50.978Z,98720.41
2022-09-28T01:37:54.913Z,98727.00
2022-09-28T01:43:01.980Z,98726.41
2022-09-28T01:48:07.317Z,98732.31
2022-09-28T01:53:14.773Z,98729.50
2022-09-28T01:58:21.640Z,98722.78
2022-09-28T02:03:27.117Z,98717.44
2022-09-28T02:08:32.575Z,98715.34
2022-09-28T02:13:38.583Z,98710.84
2022-09-28T02:18:41.727Z,98729.00
2022-09-28T02:23:50.977Z,98740.03
2022-09-28T02:28:55.280Z,98745.31
2022-09-28T02:33:58.643Z,98740.88
2022-09-28T02:39:02.420Z,98732.63
2022-09-28T02:44:13.355Z,98720.75
2022-09-28T02:49:22.703Z,98728.94
2022-09-28T02:54:36.562Z,98732.91
2022-09-28T02:59:45.638Z,98733.91
2022-09-28T03:04:54.919Z,98724.97
2022-09-28T03:10:02.671Z,98723.19
2022-09-28T03:15:11.958Z,98726.66
2022-09-28T03:20:14.942Z,98734.22
2022-09-28T03:25:18.182Z,98729.16
2022-09-28T03:30:23.052Z,98729.00
2022-09-28T03:35:26.079Z,98727.97
2022-09-28T03:40:29.002Z,98725.28
2022-09-28T03:45:33.387Z,98729.84
2022-09-28T03:50:36.384Z,98720.00
2022-09-28T03:55:39.384Z,98711.84
2022-09-28T04:00:43.954Z,98717.97
2022-09-28T04:05:50.258Z,98713.78
2022-09-28T04:10:53.371Z,98715.22
2022-09-28T04:15:58.708Z,98719.75
2022-09-28T04:21:03.662Z,98719.50
2022-09-28T04:26:07.541Z,98738.78
2022-09-28T04:31:12.842Z,98739.34
2022-09-28T04:36:15.946Z,98729.72
2022-09-28T04:41:18.853Z,98721.53
2022-09-28T04:46:23.146Z,98725.31
2022-09-28T04:51:26.042Z,98723.34
2022-09-28T04:56:28.950Z,98717.28
2022-09-28T05:01:33.260Z,98723.34
2022-09-28T05:06:36.270Z,98724.13
2022-09-28T05:11:39.201Z,98721.41
2022-09-28T05:16:43.559Z,98730.91
2022-09-28T05:21:46.992Z,98727.13
2022-09-28T05:26:49.928Z,98735.63
2022-09-28T05:31:54.255Z,98739.38
2022-09-28T05:36:57.209Z,98738.28
2022-09-28T05:42:00.152Z,98737.44
2022-09-28T05:47:04.450Z,98740.03
2022-09-28T05:52:07.381Z,98752.56
2022-09-28T05:57:10.518Z,98762.03
2022-09-28T06:02:14.930Z,98755.84
2022-09-28T06:07:18.018Z,98758.53
2022-09-28T06:12:21.049Z,98775.59
2022-09-28T06:17:25.492Z,98767.88
2022-09-28T06:22:30.542Z,98778.03
2022-09-28T06:27:33.560Z,98773.72
2022-09-28T06:32:37.939Z,98784.84
2022-09-28T06:37:40.886Z,98778.81
2022-09-28T06:42:43.870Z,98779.63
2022-09-28T06:47:53.267Z,98772.94
2022-09-28T06:52:59.786Z,98768.44
2022-09-28T06:58:03.631Z,98774.44
2022-09-28T07:03:09.106Z,98780.63
2022-09-28T07:08:12.623Z,98791.81
2022-09-28T07:13:41.107Z,98791.50
2022-09-28T07:18:42.206Z,98799.06
2022-09-28T07:23:52.467Z,98798.75
2022-09-28T07:28:56.616Z,98796.78
2022-09-28T07:34:00.943Z,98795.22
2022-09-28T07:39:04.055Z,98796.22
2022-09-28T07:44:07.145Z,98795.06
2022-09-28T07:49:12.798Z,98796.06
2022-09-28T07:54:15.771Z,98799.09
2022-09-28T07:59:20.397Z,98796.03
2022-09-28T08:04:25.441Z,98809.16
2022-09-28T08:09:28.412Z,98813.81
2022-09-28T08:14:34.031Z,98821.50
2022-09-28T08:19:55.952Z,98811.34
2022-09-28T08:24:58.952Z,98808.09
2022-09-28T08:30:01.887Z,98818.66
2022-09-28T08:35:06.995Z,98821.47
2022-09-28T08:40:14.446Z,98829.59
2022-09-28T08:45:22.148Z,98817.16
2022-09-28T08:50:30.006Z,98819.50
2022-09-28T08:55:34.727Z,98812.94
2022-09-28T09:00:40.958Z,98818.44
2022-09-28T09:05:56.141Z,98825.22
2022-09-28T09:11:03.566Z,98827.16
2022-09-28T09:16:10.299Z,98822.91
2022-09-28T09:21:16.134Z,98818.31
2022-09-28T09:26:24.999Z,98821.72
2022-09-28T09:31:38.299Z,98819.13
2022-09-28T09:36:50.171Z,98827.63
2022-09-28T09:42:02.432Z,98823.97
2022-09-28T09:47:08.197Z,98837.19
2022-09-28T09:52:18.563Z,98835.84
2022-09-28T09:57:23.788Z,98842.84
2022-09-28T10:02:28.360Z,98830.84
2022-09-28T10:07:42.590Z,98833.72
2022-09-28T10:12:49.515Z,98836.16
2022-09-28T10:17:53.011Z,98839.97
2022-09-28T10:23:02.103Z,98832.28
2022-09-28T10:28:06.528Z,98837.41
2022-09-28T10:33:28.030Z,98832.84
2022-09-28T10:38:32.911Z,98840.56
2022-09-28T10:43:38.728Z,98844.75
2022-09-28T10:48:49.463Z,98831.88
2022-09-28T10:54:01.863Z,98828.66
2022-09-28T10:59:23.428Z,98820.31
2022-09-28T11:04:28.607Z,98817.97
2022-09-28T11:09:34.687Z,98832.47
2022-09-28T11:14:42.423Z,98826.66
2022-09-28T11:19:46.167Z,98821.38
2022-09-28T11:24:50.616Z,98823.59
2022-09-28T11:29:56.755Z,98829.44
2022-09-28T11:35:01.170Z,98819.84
2022-09-28T11:40:12.925Z,98827.19
2022-09-28T11:45:33.270Z,98834.16
2022-09-28T11:50:42.341Z,98835.38
2022-09-28T11:55:48.439Z,98837.84
2022-09-28T12:00:55.682Z,98837.84
2022-09-28T12:06:01.152Z,98844.59
2022-09-28T12:11:09.835Z,98848.31
2022-09-28T12:16:38.975Z,98850.19
2022-09-28T12:21:43.994Z,98841.22
2022-09-28T12:26:50.995Z,98839.19
2022-09-28T12:31:59.233Z,98838.09
2022-09-28T12:37:08.427Z,98847.56
2022-09-28T12:42:22.406Z,98843.47
2022-09-28T12:47:37.916Z,98841.28
2022-09-28T12:52:45.395Z,98828.19
2022-09-28T12:57:57.416Z,98832.94
2022-09-28T13:03:19.182Z,98836.63
2022-09-28T13:08:30.262Z,98835.66
2022-09-28T13:13:39.771Z,98828.53
2022-09-28T13:18:48.607Z,98823.91
2022-09-28T13:24:00.770Z,98823.47
2022-09-28T13:29:14.688Z,98830.44
2022-09-28T13:34:20.619Z,98816.63
2022-09-28T13:39:37.487Z,98816.00
2022-09-28T13:45:00.312Z,98815.47
2022-09-28T13:50:14.242Z,98817.88
2022-09-28T13:55:24.975Z,98820.22
2022-09-28T14:00:31.468Z,98815.44
2022-09-28T14:05:48.625Z,98815.06
2022-09-28T14:10:52.722Z,98822.19
2022-09-28T14:16:17.196Z,98820.78
2022-09-28T14:21:40.317Z,98828.47
2022-09-28T14:27:01.766Z,98831.97
2022-09-28T14:32:22.175Z,98830.28
2022-09-28T14:37:45.634Z,98823.47
2022-09-28T14:43:03.458Z,98822.06
2022-09-28T14:48:15.781Z,98827.81
2022-09-28T14:53:23.961Z,98832.91
2022-09-28T14:58:27.637Z,98832.66
2022-09-28T15:03:33.443Z,98832.41
2022-09-28T15:08:37.408Z,98834.72
2022-09-28T15:13:40.856Z,98845.44
2022-09-28T15:19:10.713Z,98841.31
2022-09-28T15:24:27.284Z,98843.31
2022-09-28T15:29:33.445Z,98858.97
2022-09-28T15:34:51.889Z,98851.03
2022-09-28T15:39:55.809Z,98846.78
2022-09-28T15:45:03.493Z,98842.16
2022-09-28T15:50:09.302Z,98851.19
2022-09-28T15:55:20.397Z,98844.47
2022-09-28T16:00:25.373Z,98842.00
2022-09-28T16:05:36.021Z,98839.56
2022-09-28T16:10:52.001Z,98851.03
2022-09-28T16:15:58.224Z,98858.19
2022-09-28T16:21:23.029Z,98849.75
2022-09-28T16:26:29.914Z,98843.94
2022-09-28T16:31:34.749Z,98832.94
2022-09-28T16:36:45.851Z,98834.09
2022-09-28T16:41:50.619Z,98840.44
2022-09-28T16:46:57.466Z,98826.59
2022-09-28T16:52:02.499Z,98824.06
2022-09-28T16:57:06.562Z,98818.31
2022-09-28T17:02:42.250Z,98826.28
2022-09-28T17:07:44.289Z,98840.22
2022-09-28T17:12:47.644Z,98823.78
2022-09-28T17:17:51.214Z,98827.31
2022-09-28T17:22:55.545Z,98826.94
2022-09-28T17:27:59.134Z,98812.78
2022-09-28T17:33:02.089Z,98815.09
2022-09-28T17:38:06.372Z,98813.75
2022-09-28T17:43:09.391Z,98815.69
2022-09-28T17:48:15.833Z,98827.03
2022-09-28T17:53:20.112Z,98829.66
2022-09-28T17:58:23.825Z,98842.81
2022-09-28T18:03:27.005Z,98850.97
2022-09-28T18:08:31.957Z,98851.78
2022-09-28T18:13:34.960Z,98865.09
2022-09-28T18:18:39.866Z,98866.69
2022-09-28T18:23:44.275Z,98875.03
2022-09-28T18:28:47.610Z,98889.03
2022-09-28T18:33:50.704Z,98909.13
2022-09-28T18:38:55.311Z,98919.34
2022-09-28T18:44:00.938Z,98923.41
2022-09-28T18:49:04.625Z,98934.19
2022-09-28T18:54:09.066Z,98942.03
2022-09-28T18:59:12.609Z,98948.56
2022-09-28T19:04:15.909Z,98958.59
2022-09-28T19:09:21.870Z,98955.75
2022-09-28T19:14:25.094Z,98956.66
2022-09-28T19:19:29.179Z,98955.63
2022-09-28T19:24:33.787Z,98947.47
2022-09-28T19:29:36.686Z,98934.03
2022-09-28T19:34:39.776Z,98926.22
2022-09-28T19:39:45.396Z,98909.25
2022-09-28T19:44:48.351Z,98893.84
2022-09-28T19:49:51.313Z,98890.97
2022-09-28T19:54:56.818Z,98904.50
2022-09-28T20:00:03.213Z,98889.34
2022-09-28T20:05:06.910Z,98884.00
2022-09-28T20:10:12.247Z,98894.06
2022-09-28T20:15:16.683Z,98896.19
2022-09-28T20:20:19.715Z,98893.94
2022-09-28T20:25:24.160Z,98897.72
2022-09-28T20:30:28.822Z,98904.00
2022-09-28T20:35:33.377Z,98906.94
2022-09-28T20:40:40.938Z,98901.94
2022-09-28T20:45:44.033Z,98891.75
2022-09-28T20:50:47.024Z,98892.13
2022-09-28T20:55:57.696Z,98889.59
2022-09-28T21:01:04.851Z,98889.66
2022-09-28T21:06:12.160Z,98893.56
2022-09-28T21:11:17.567Z,98890.31
2022-09-28T21:16:20.827Z,98893.16
2022-09-28T21:21:24.401Z,98904.94
2022-09-28T21:26:30.839Z,98902.56
2022-09-28T21:31:38.092Z,98900.03
2022-09-28T21:36:41.245Z,98898.13
2022-09-28T21:41:45.690Z,98899.81
2022-09-28T21:46:48.963Z,98901.13
2022-09-28T21:51:52.616Z,98907.63
2022-09-28T21:56:56.997Z,98913.72
2022-09-28T22:02:00.095Z,98910.28
2022-09-28T22:07:04.306Z,98923.53
2022-09-28T22:12:08.856Z,98939.97
2022-09-28T22:17:11.845Z,98936.50
2022-09-28T22:22:14.849Z,98950.47
2022-09-28T22:27:19.147Z,98954.59
2022-09-28T22:32:23.851Z,98942.19
2022-09-28T22:37:28.103Z,98936.19
2022-09-28T22:42:32.759Z,98939.34
2022-09-28T22:47:35.721Z,98940.81
2022-09-28T22:52:38.675Z,98955.16
2022-09-28T22:57:42.943Z,98955.28
2022-09-28T23:02:45.896Z,98949.31
2022-09-28T23:07:48.875Z,98951.84
2022-09-28T23:12:53.961Z,98952.09
2022-09-28T23:17:56.914Z,98969.25
2022-09-28T23:22:59.810Z,98974.44
2022-09-28T23:28:04.119Z,98970.31
2022-09-28T23:33:07.261Z,98968.44
2022-09-28T23:38:12.014Z,98973.38
2022-09-28T23:43:16.620Z,98971.28
2022-09-28T23:48:19.749Z,98988.78
2022-09-28T23:53:22.715Z,98995.47
2022-09-28T23:58:27.584Z,98995.31
